CheckWX is a tool to help pilots better visualize weather data.  It is not intended as a substitute for an official pre-flight weather briefing.

09:06:38 UTC

KNQA METAR
Millington Regional Jetport Airport
Millington, Tennessee, USA
Current

12 mins ago

KNQA 120855Z AUTO 00000KT 10SM CLR M00/M02 A3047 RMK A01
Observed
Dec-12 @ 08:55 UTC
Visibility
10 SM
Flight Rules
VFR
Cloud Levels
  • Clear skies
Temperature
C / 32°F
Dewpoint
-2°C / 28°F
Humidity
87%
Altimeter
30.47" Hg
Pressure
1031.82 hPa
Previous

32 mins ago

KNQA 120835Z AUTO 00000KT 10SM CLR M01/M03 A3047 RMK A01
Observed
Dec-12 @ 08:35 UTC
Visibility
10 SM
Flight Rules
VFR
Cloud Levels
  • Clear skies
Temperature
-1°C / 30°F
Dewpoint
-3°C / 27°F
Humidity
86%
Altimeter
30.47" Hg
Pressure
1031.82 hPa
Previous

52 mins ago

KNQA 120815Z AUTO 00000KT 10SM CLR M01/M03 A3047 RMK A01
Observed
Dec-12 @ 08:15 UTC
Visibility
10 SM
Flight Rules
VFR
Cloud Levels
  • Clear skies
Temperature
-1°C / 30°F
Dewpoint
-3°C / 27°F
Humidity
86%
Altimeter
30.47" Hg
Pressure
1031.82 hPa